createdAt,value
2023-08-26T00:02:21.358Z,20.30
2023-08-26T00:04:48.920Z,20.30
2023-08-26T00:07:15.955Z,20.20
2023-08-26T00:09:42.989Z,20.20
2023-08-26T00:12:10.145Z,20.10
2023-08-26T00:14:37.269Z,20.00
2023-08-26T00:17:05.843Z,19.90
2023-08-26T00:19:33.215Z,19.80
2023-08-26T00:22:01.872Z,19.80
2023-08-26T00:24:29.200Z,19.70
2023-08-26T00:26:56.433Z,19.60
2023-08-26T00:29:23.552Z,19.60
2023-08-26T00:31:50.786Z,19.60
2023-08-26T00:34:17.884Z,19.70
2023-08-26T00:36:45.248Z,19.70
2023-08-26T00:39:12.462Z,19.60
2023-08-26T00:41:39.558Z,19.70
2023-08-26T00:44:06.765Z,19.80
2023-08-26T00:46:35.893Z,19.80
2023-08-26T00:49:04.093Z,19.80
2023-08-26T00:51:32.378Z,19.90
2023-08-26T00:54:05.940Z,19.90
2023-08-26T00:56:34.447Z,19.90
2023-08-26T00:59:02.413Z,19.90
2023-08-26T01:01:32.861Z,19.90
2023-08-26T01:04:00.104Z,19.90
2023-08-26T01:06:28.317Z,19.90
2023-08-26T01:08:55.867Z,19.90
2023-08-26T01:11:34.166Z,19.90
2023-08-26T01:14:07.050Z,19.90
2023-08-26T01:16:36.389Z,19.80
2023-08-26T01:19:09.420Z,19.80
2023-08-26T01:21:39.059Z,19.80
2023-08-26T01:24:07.615Z,19.70
2023-08-26T01:26:34.686Z,19.70
2023-08-26T01:29:01.875Z,19.70
2023-08-26T01:35:39.112Z,19.80
2023-08-26T01:38:09.108Z,19.80
2023-08-26T01:40:37.998Z,19.70
2023-08-26T01:43:08.842Z,19.70
2023-08-26T01:45:35.901Z,19.70
2023-08-26T01:48:03.132Z,19.60
2023-08-26T01:50:30.522Z,19.60
2023-08-26T01:52:57.578Z,19.50
2023-08-26T01:55:24.670Z,19.50
2023-08-26T01:57:51.749Z,19.50
2023-08-26T02:00:19.101Z,19.40
2023-08-26T02:02:46.285Z,19.40
2023-08-26T02:05:13.433Z,19.40
2023-08-26T02:07:40.485Z,19.40
2023-08-26T02:10:08.224Z,19.40
2023-08-26T02:12:35.304Z,19.40
2023-08-26T02:15:04.458Z,19.40
2023-08-26T02:17:31.826Z,19.40
2023-08-26T02:19:58.998Z,19.40
2023-08-26T02:22:26.087Z,19.40
2023-08-26T02:24:53.170Z,19.40
2023-08-26T02:27:20.271Z,19.40
2023-08-26T02:29:47.337Z,19.40
2023-08-26T02:32:15.440Z,19.40
2023-08-26T02:34:42.508Z,19.40
2023-08-26T02:37:09.594Z,19.40
2023-08-26T02:39:36.828Z,19.40
2023-08-26T02:42:04.083Z,19.30
2023-08-26T02:44:31.097Z,19.30
2023-08-26T02:46:58.209Z,19.30
2023-08-26T02:49:25.239Z,19.30
2023-08-26T02:51:52.317Z,19.30
2023-08-26T02:54:20.604Z,19.40
2023-08-26T02:56:47.686Z,19.40
2023-08-26T02:59:14.741Z,19.50
2023-08-26T03:01:42.042Z,19.50
2023-08-26T03:04:09.172Z,19.60
2023-08-26T03:06:36.279Z,19.60
2023-08-26T03:09:03.951Z,19.60
2023-08-26T03:11:31.015Z,19.60
2023-08-26T03:13:58.102Z,19.60
2023-08-26T03:16:25.195Z,19.70
2023-08-26T03:18:54.317Z,19.70
2023-08-26T03:21:22.474Z,19.70
2023-08-26T03:23:49.570Z,19.70
2023-08-26T03:26:16.716Z,19.70
2023-08-26T03:28:44.019Z,19.70
2023-08-26T03:31:12.140Z,19.70
2023-08-26T03:33:45.490Z,19.70
2023-08-26T03:36:13.472Z,19.80
2023-08-26T03:38:40.532Z,19.80
2023-08-26T03:41:08.004Z,19.70
2023-08-26T03:43:35.315Z,19.70
2023-08-26T03:46:04.808Z,19.70
2023-08-26T03:48:32.320Z,19.70
2023-08-26T03:50:59.939Z,19.70
2023-08-26T03:53:28.641Z,19.70
2023-08-26T03:55:55.863Z,19.70
2023-08-26T03:58:23.071Z,19.70
2023-08-26T04:01:21.580Z,19.70
2023-08-26T04:03:52.447Z,19.80
2023-08-26T04:06:20.117Z,19.80
2023-08-26T04:08:47.298Z,19.80
2023-08-26T04:11:16.431Z,19.80
2023-08-26T04:13:43.566Z,19.70
2023-08-26T04:16:10.673Z,19.70
2023-08-26T04:18:37.776Z,19.70
2023-08-26T04:21:05.667Z,19.80
2023-08-26T04:23:32.792Z,19.80
2023-08-26T04:26:07.133Z,19.70
2023-08-26T04:28:34.254Z,19.80
2023-08-26T04:31:01.697Z,19.80
2023-08-26T04:33:29.217Z,19.80
2023-08-26T04:35:56.340Z,19.80
2023-08-26T04:38:23.545Z,19.80
2023-08-26T04:40:50.690Z,19.80
2023-08-26T04:43:18.229Z,19.80
2023-08-26T04:45:45.379Z,19.80
2023-08-26T04:48:13.942Z,19.80
2023-08-26T04:50:42.849Z,19.80
2023-08-26T04:53:10.087Z,19.80
2023-08-26T04:55:38.016Z,19.80
2023-08-26T04:58:07.974Z,19.80
2023-08-26T05:00:35.299Z,19.80
2023-08-26T05:03:02.594Z,19.80
2023-08-26T05:05:29.754Z,19.80
2023-08-26T05:07:57.348Z,19.80
2023-08-26T05:10:24.718Z,19.80
2023-08-26T05:12:51.914Z,19.90
2023-08-26T05:15:18.990Z,19.90
2023-08-26T05:17:46.512Z,19.90
2023-08-26T05:20:13.743Z,19.90
2023-08-26T05:22:44.000Z,19.80
2023-08-26T05:25:11.231Z,19.80
2023-08-26T05:27:38.345Z,19.80
2023-08-26T05:30:06.522Z,19.80
2023-08-26T05:32:40.295Z,19.80
2023-08-26T05:39:06.128Z,19.80
2023-08-26T05:41:33.931Z,19.80
2023-08-26T05:44:01.132Z,19.80
2023-08-26T05:46:28.294Z,19.80
2023-08-26T05:48:55.457Z,19.80
2023-08-26T05:51:23.011Z,19.90
2023-08-26T05:53:50.153Z,19.90
2023-08-26T05:56:17.211Z,19.90
2023-08-26T05:58:44.678Z,19.90
2023-08-26T06:01:11.748Z,19.90
2023-08-26T06:03:38.881Z,19.90
2023-08-26T06:06:06.889Z,19.90
2023-08-26T06:08:34.076Z,20.00
2023-08-26T06:11:01.144Z,19.90
2023-08-26T06:13:28.858Z,19.90
2023-08-26T06:15:56.886Z,19.90
2023-08-26T06:18:25.201Z,20.00
2023-08-26T06:20:52.973Z,20.00
2023-08-26T06:23:21.102Z,20.00
2023-08-26T06:25:58.566Z,20.00
2023-08-26T06:28:26.932Z,20.10
2023-08-26T06:30:59.285Z,20.10
2023-08-26T06:33:30.062Z,20.20
2023-08-26T06:35:57.276Z,20.20
2023-08-26T06:38:24.386Z,20.30
2023-08-26T06:40:57.238Z,20.30
2023-08-26T06:43:25.448Z,20.30
2023-08-26T06:45:53.383Z,20.30
2023-08-26T06:48:20.880Z,20.20
2023-08-26T06:51:39.218Z,20.20
2023-08-26T06:54:06.587Z,20.20
2023-08-26T06:56:33.692Z,20.10
2023-08-26T06:59:00.780Z,20.10
2023-08-26T07:01:27.998Z,20.20
2023-08-26T07:04:03.600Z,20.20
2023-08-26T07:06:30.839Z,20.20
2023-08-26T07:08:58.058Z,20.30
2023-08-26T07:11:25.205Z,20.30
2023-08-26T07:13:52.307Z,20.30
2023-08-26T07:16:19.406Z,20.20
2023-08-26T07:18:46.678Z,20.20
2023-08-26T07:21:15.452Z,20.20
2023-08-26T07:23:42.654Z,20.20
2023-08-26T07:26:09.960Z,20.30
2023-08-26T07:28:37.032Z,20.30
2023-08-26T07:31:05.910Z,20.30
2023-08-26T07:33:33.648Z,20.40
2023-08-26T07:36:07.546Z,20.50
2023-08-26T07:38:35.428Z,20.60
2023-08-26T07:41:02.606Z,20.70
2023-08-26T07:43:29.693Z,20.80
2023-08-26T07:50:56.724Z,21.00
2023-08-26T07:53:23.918Z,21.00
2023-08-26T07:55:51.084Z,21.10
2023-08-26T07:58:18.124Z,21.20
2023-08-26T08:00:46.313Z,21.20
2023-08-26T08:03:13.643Z,21.20
2023-08-26T08:06:33.717Z,21.30
2023-08-26T08:09:00.936Z,21.30
2023-08-26T08:11:28.344Z,21.40
2023-08-26T08:13:55.433Z,21.40
2023-08-26T08:16:22.507Z,21.50
2023-08-26T08:18:49.657Z,21.50
2023-08-26T08:21:16.735Z,21.60
2023-08-26T08:23:45.244Z,21.60
2023-08-26T08:26:12.943Z,21.60
2023-08-26T08:28:40.072Z,21.60
2023-08-26T08:31:07.222Z,21.70
2023-08-26T08:33:35.340Z,21.80
2023-08-26T08:36:02.687Z,21.80
2023-08-26T08:38:29.757Z,21.80
2023-08-26T08:40:56.825Z,21.80
2023-08-26T08:43:25.196Z,21.80
2023-08-26T08:45:54.187Z,21.90
2023-08-26T08:48:21.864Z,21.90
2023-08-26T08:50:49.056Z,21.90
2023-08-26T08:53:20.325Z,22.00
2023-08-26T08:55:47.676Z,22.10
2023-08-26T08:58:15.245Z,22.30
2023-08-26T09:00:43.314Z,22.50
2023-08-26T09:03:10.905Z,22.60
2023-08-26T09:05:38.374Z,22.70
2023-08-26T09:08:09.439Z,22.80
2023-08-26T09:10:37.072Z,22.90
2023-08-26T09:13:07.738Z,23.00
2023-08-26T09:15:34.900Z,23.00
2023-08-26T09:18:13.499Z,23.00
2023-08-26T09:20:41.552Z,23.10
2023-08-26T09:23:11.434Z,23.10
2023-08-26T09:25:38.764Z,23.20
2023-08-26T09:28:06.320Z,23.20
2023-08-26T09:30:33.464Z,23.20
2023-08-26T09:33:00.708Z,23.10
2023-08-26T09:37:59.688Z,23.20
2023-08-26T09:40:27.106Z,23.30
2023-08-26T09:42:54.602Z,23.30
2023-08-26T09:45:22.000Z,23.30
2023-08-26T09:47:52.969Z,23.40
2023-08-26T09:50:34.391Z,23.50
2023-08-26T09:53:01.732Z,23.60
2023-08-26T09:55:31.313Z,23.60
2023-08-26T09:57:59.467Z,23.60
2023-08-26T10:00:27.952Z,23.70
2023-08-26T10:03:03.398Z,23.70
2023-08-26T10:05:33.351Z,23.70
2023-08-26T10:08:07.931Z,23.70
2023-08-26T10:10:50.776Z,23.70
2023-08-26T10:13:21.662Z,23.70
2023-08-26T10:15:52.284Z,23.80
2023-08-26T10:18:50.820Z,23.80
2023-08-26T10:21:18.508Z,23.90
2023-08-26T10:23:50.617Z,24.00
2023-08-26T10:26:20.422Z,23.90
2023-08-26T10:28:48.974Z,24.00
2023-08-26T10:31:17.934Z,23.90
2023-08-26T10:34:04.073Z,23.90
2023-08-26T10:36:34.469Z,24.00
2023-08-26T10:39:02.170Z,24.00
2023-08-26T10:41:29.431Z,24.10
2023-08-26T10:44:02.697Z,24.10
2023-08-26T10:46:38.000Z,24.10
2023-08-26T10:49:05.744Z,24.20
2023-08-26T10:51:36.793Z,24.20
2023-08-26T10:54:07.004Z,24.30
2023-08-26T10:56:40.931Z,24.40
2023-08-26T10:59:08.790Z,24.40
2023-08-26T11:01:37.180Z,24.50
2023-08-26T11:04:06.307Z,24.60
2023-08-26T11:06:42.855Z,24.60
2023-08-26T11:09:15.367Z,24.70
2023-08-26T11:11:43.896Z,24.80
2023-08-26T11:14:11.429Z,24.80
2023-08-26T11:16:38.621Z,24.90
2023-08-26T11:19:08.066Z,24.90
2023-08-26T11:21:39.165Z,24.90
2023-08-26T11:24:06.438Z,25.00
2023-08-26T11:26:33.734Z,25.10
2023-08-26T11:29:02.132Z,25.30
2023-08-26T11:31:30.212Z,25.30
2023-08-26T11:33:57.696Z,25.40
2023-08-26T11:36:26.096Z,25.40
2023-08-26T11:38:53.247Z,25.50
2023-08-26T11:41:22.278Z,25.50
2023-08-26T11:43:49.358Z,25.50
2023-08-26T11:46:19.109Z,25.30
2023-08-26T11:48:46.364Z,25.00
2023-08-26T11:51:13.509Z,24.90
2023-08-26T11:53:40.752Z,24.90
2023-08-26T11:56:08.492Z,24.80
2023-08-26T11:58:39.010Z,24.60
2023-08-26T12:01:09.402Z,24.60
2023-08-26T12:03:44.992Z,24.60
2023-08-26T12:06:14.852Z,24.50
2023-08-26T12:08:42.052Z,24.60
2023-08-26T12:11:09.105Z,24.60
2023-08-26T12:13:40.427Z,24.60
2023-08-26T12:16:07.567Z,24.60
2023-08-26T12:18:34.836Z,24.60
2023-08-26T12:21:02.137Z,24.60
2023-08-26T12:23:30.176Z,24.70
2023-08-26T12:25:57.505Z,24.70
2023-08-26T12:28:27.783Z,24.70
2023-08-26T12:30:55.122Z,24.70
2023-08-26T12:33:26.400Z,24.70
2023-08-26T12:35:56.221Z,24.60
2023-08-26T12:38:24.662Z,24.50
2023-08-26T12:40:52.360Z,24.50
2023-08-26T12:43:20.564Z,24.40
2023-08-26T12:45:48.338Z,24.30
2023-08-26T12:48:21.911Z,24.20
2023-08-26T12:51:00.936Z,24.10
2023-08-26T12:53:28.088Z,24.00
2023-08-26T12:55:55.363Z,23.90
2023-08-26T12:58:25.655Z,23.80
2023-08-26T13:00:53.095Z,23.80
2023-08-26T13:03:20.372Z,23.80
2023-08-26T13:05:50.053Z,23.70
2023-08-26T13:08:17.313Z,23.60
2023-08-26T13:10:44.581Z,23.40
2023-08-26T13:13:11.738Z,23.30
2023-08-26T13:15:40.999Z,23.10
2023-08-26T13:18:08.650Z,23.00
2023-08-26T13:20:36.125Z,22.90
2023-08-26T13:23:04.304Z,22.90
2023-08-26T13:25:31.780Z,22.90
2023-08-26T13:27:59.282Z,22.80
2023-08-26T13:30:26.624Z,22.70
2023-08-26T13:32:53.802Z,22.50
2023-08-26T13:35:20.894Z,22.40
2023-08-26T13:37:47.965Z,22.30
2023-08-26T13:40:15.014Z,22.20
2023-08-26T13:42:42.103Z,22.10
2023-08-26T13:45:09.583Z,22.00
2023-08-26T13:47:36.687Z,21.80
2023-08-26T13:50:03.874Z,21.50
2023-08-26T13:52:30.916Z,21.20
2023-08-26T13:54:58.089Z,20.80
2023-08-26T13:57:25.957Z,20.40
2023-08-26T13:59:53.007Z,20.10
2023-08-26T14:02:21.950Z,19.80
2023-08-26T14:04:49.078Z,19.60
2023-08-26T14:07:28.384Z,19.40
2023-08-26T14:09:55.340Z,19.20
2023-08-26T14:12:22.418Z,19.10
2023-08-26T14:14:49.459Z,19.00
2023-08-26T14:17:16.556Z,18.90
2023-08-26T14:19:43.622Z,18.80
2023-08-26T14:22:11.121Z,18.70
2023-08-26T14:24:38.308Z,18.70
2023-08-26T14:27:12.815Z,18.60
2023-08-26T14:34:05.113Z,18.50
2023-08-26T14:36:32.134Z,18.40
2023-08-26T14:39:02.622Z,18.40
2023-08-26T14:41:31.092Z,18.40
2023-08-26T14:43:59.272Z,18.30
2023-08-26T14:46:26.493Z,18.10
2023-08-26T14:48:57.473Z,18.00
2023-08-26T14:51:26.589Z,17.90
2023-08-26T14:53:53.854Z,18.00
2023-08-26T14:56:20.950Z,18.00
2023-08-26T14:58:47.999Z,18.00
2023-08-26T15:01:15.051Z,18.10
2023-08-26T15:03:44.574Z,18.20
2023-08-26T15:06:11.929Z,18.40
2023-08-26T15:08:39.559Z,18.40
2023-08-26T15:11:09.248Z,18.40
2023-08-26T15:13:36.514Z,18.40
2023-08-26T15:16:03.981Z,18.30
2023-08-26T15:18:32.005Z,18.20
2023-08-26T15:20:59.075Z,18.20
2023-08-26T15:23:26.206Z,18.20
2023-08-26T15:25:54.986Z,18.30
2023-08-26T15:28:26.315Z,18.30
2023-08-26T15:30:57.488Z,18.40
2023-08-26T15:33:30.831Z,18.50
2023-08-26T15:35:57.913Z,18.60
2023-08-26T15:38:25.139Z,18.60
2023-08-26T15:40:57.017Z,18.70
2023-08-26T15:43:24.549Z,18.80
2023-08-26T15:45:52.764Z,18.80
2023-08-26T15:48:21.076Z,18.90
2023-08-26T15:50:48.344Z,18.90
2023-08-26T15:53:18.289Z,18.80
2023-08-26T15:55:46.567Z,18.70
2023-08-26T15:58:19.418Z,18.60
2023-08-26T16:01:14.636Z,18.60
2023-08-26T16:03:43.904Z,18.60
2023-08-26T16:06:10.945Z,18.70
2023-08-26T16:08:39.291Z,18.80
2023-08-26T16:11:07.090Z,18.80
2023-08-26T16:13:35.174Z,18.80
2023-08-26T16:16:04.254Z,18.90
2023-08-26T16:18:31.346Z,19.00
2023-08-26T16:25:16.621Z,19.00
2023-08-26T16:27:43.847Z,19.00
2023-08-26T16:30:11.527Z,19.10
2023-08-26T16:32:38.720Z,19.00
2023-08-26T16:35:08.184Z,19.00
2023-08-26T16:37:35.995Z,19.00
2023-08-26T16:40:04.273Z,19.00
2023-08-26T16:42:31.568Z,19.00
2023-08-26T16:44:58.883Z,18.90
2023-08-26T16:47:26.449Z,18.80
2023-08-26T16:49:53.726Z,18.80
2023-08-26T16:52:21.318Z,18.70
2023-08-26T16:54:49.940Z,18.70
2023-08-26T16:57:18.100Z,18.70
2023-08-26T16:59:45.530Z,18.70
2023-08-26T17:02:14.364Z,18.70
2023-08-26T17:04:41.584Z,18.70
2023-08-26T17:07:08.982Z,18.70
2023-08-26T17:09:36.104Z,18.70
2023-08-26T17:12:04.565Z,18.60
2023-08-26T17:14:32.575Z,18.60
2023-08-26T17:17:01.357Z,18.50
2023-08-26T17:19:29.353Z,18.50
2023-08-26T17:26:21.556Z,18.40
2023-08-26T17:28:48.638Z,18.40
2023-08-26T17:31:15.726Z,18.40
2023-08-26T17:33:42.826Z,18.30
2023-08-26T17:36:09.922Z,18.30
2023-08-26T17:38:36.976Z,18.20
2023-08-26T17:41:04.113Z,18.20
2023-08-26T17:43:31.196Z,18.20
2023-08-26T17:45:58.340Z,18.10
2023-08-26T17:48:26.026Z,18.10
2023-08-26T17:50:55.171Z,18.20
2023-08-26T17:53:26.002Z,18.20
2023-08-26T17:55:53.092Z,18.20
2023-08-26T17:58:20.233Z,18.10
2023-08-26T18:00:48.689Z,18.10
2023-08-26T18:03:16.635Z,18.00
2023-08-26T18:05:44.151Z,18.00
2023-08-26T18:08:11.237Z,17.90
2023-08-26T18:10:38.526Z,17.90
2023-08-26T18:13:08.877Z,17.80
2023-08-26T18:15:37.398Z,17.80
2023-08-26T18:18:04.657Z,17.80
2023-08-26T18:20:32.184Z,17.80
2023-08-26T18:22:59.493Z,17.90
2023-08-26T18:25:26.880Z,17.90
2023-08-26T18:27:53.996Z,17.80
2023-08-26T18:30:21.334Z,17.80
2023-08-26T18:32:48.502Z,17.70
2023-08-26T18:35:15.606Z,17.70
2023-08-26T18:37:42.700Z,17.60
2023-08-26T18:40:10.043Z,17.60
2023-08-26T18:42:37.189Z,17.60
2023-08-26T18:45:04.582Z,17.50
2023-08-26T18:47:31.866Z,17.50
2023-08-26T18:49:58.959Z,17.50
2023-08-26T18:52:26.129Z,17.40
2023-08-26T18:54:54.574Z,17.40
2023-08-26T18:57:22.399Z,17.40
2023-08-26T18:59:49.491Z,17.40
2023-08-26T19:02:16.546Z,17.40
2023-08-26T19:04:43.752Z,17.40
2023-08-26T19:07:10.844Z,17.40
2023-08-26T19:09:37.929Z,17.40
2023-08-26T19:12:05.373Z,17.40
2023-08-26T19:14:39.620Z,17.40
2023-08-26T19:17:06.662Z,17.30
2023-08-26T19:19:33.740Z,17.30
2023-08-26T19:22:50.571Z,17.30
2023-08-26T19:25:20.800Z,17.30
2023-08-26T19:27:48.565Z,17.20
2023-08-26T19:30:15.650Z,17.20
2023-08-26T19:32:42.806Z,17.20
2023-08-26T19:35:09.903Z,17.20
2023-08-26T19:37:36.988Z,17.10
2023-08-26T19:40:04.525Z,17.10
2023-08-26T19:42:31.777Z,17.10
2023-08-26T19:44:58.819Z,17.10
2023-08-26T19:47:25.905Z,17.10
2023-08-26T19:49:53.094Z,17.10
2023-08-26T19:52:20.222Z,17.10
2023-08-26T19:54:47.248Z,17.10
2023-08-26T19:57:23.885Z,17.10
2023-08-26T19:59:51.685Z,17.00
2023-08-26T20:02:19.135Z,17.00
2023-08-26T20:04:50.307Z,17.00
2023-08-26T20:07:18.360Z,17.00
2023-08-26T20:09:45.529Z,17.00
2023-08-26T20:12:14.558Z,17.00
2023-08-26T20:14:44.509Z,17.00
2023-08-26T20:17:12.204Z,17.00
2023-08-26T20:19:39.546Z,17.00
2023-08-26T20:22:07.488Z,17.00
2023-08-26T20:24:54.876Z,17.00
2023-08-26T20:27:25.868Z,17.10
2023-08-26T20:29:55.070Z,17.00
2023-08-26T20:32:22.612Z,17.00
2023-08-26T20:34:50.177Z,17.00
2023-08-26T20:37:17.787Z,17.00
2023-08-26T20:39:45.189Z,17.00
2023-08-26T20:42:14.579Z,17.00
2023-08-26T20:44:44.303Z,16.90
2023-08-26T20:51:09.800Z,16.80
2023-08-26T20:53:36.981Z,16.80
2023-08-26T20:56:32.069Z,16.80
2023-08-26T20:58:59.187Z,16.70
2023-08-26T21:01:26.689Z,16.70
2023-08-26T21:03:53.930Z,16.60
2023-08-26T21:06:21.224Z,16.60
2023-08-26T21:08:48.387Z,16.50
2023-08-26T21:11:15.597Z,16.50
2023-08-26T21:13:42.665Z,16.40
2023-08-26T21:16:11.074Z,16.40
2023-08-26T21:18:39.148Z,16.40
2023-08-26T21:21:06.236Z,16.30
2023-08-26T21:23:33.294Z,16.30
2023-08-26T21:26:00.400Z,16.30
2023-08-26T21:28:27.806Z,16.30
2023-08-26T21:30:55.327Z,16.30
2023-08-26T21:33:23.425Z,16.30
2023-08-26T21:35:51.383Z,16.30
2023-08-26T21:38:18.473Z,16.30
2023-08-26T21:40:45.703Z,16.30
2023-08-26T21:43:14.080Z,16.30
2023-08-26T21:45:41.457Z,16.40
2023-08-26T21:48:41.752Z,16.40
2023-08-26T21:51:09.004Z,16.40
2023-08-26T21:53:36.084Z,16.40
2023-08-26T21:56:03.343Z,16.30
2023-08-26T21:58:30.449Z,16.30
2023-08-26T22:01:00.653Z,16.30
2023-08-26T22:03:28.128Z,16.30
2023-08-26T22:05:55.994Z,16.20
2023-08-26T22:08:23.154Z,16.20
2023-08-26T22:10:50.258Z,16.20
2023-08-26T22:13:17.818Z,16.20
2023-08-26T22:15:46.081Z,16.30
2023-08-26T22:18:13.236Z,16.30
2023-08-26T22:20:42.101Z,16.30
2023-08-26T22:23:09.334Z,16.20
2023-08-26T22:25:36.560Z,16.20
2023-08-26T22:28:04.100Z,16.30
2023-08-26T22:30:31.314Z,16.30
2023-08-26T22:32:58.703Z,16.30
2023-08-26T22:35:26.060Z,16.30
2023-08-26T22:37:53.129Z,16.30
2023-08-26T22:40:20.317Z,16.30
2023-08-26T22:42:47.391Z,16.30
2023-08-26T22:45:14.563Z,16.30
2023-08-26T22:47:41.842Z,16.30
2023-08-26T22:50:09.536Z,16.40
2023-08-26T22:52:36.617Z,16.30
2023-08-26T22:55:04.273Z,16.40
2023-08-26T22:57:31.358Z,16.40
2023-08-26T22:59:58.497Z,16.40
2023-08-26T23:02:26.073Z,16.40
2023-08-26T23:04:53.320Z,16.40
2023-08-26T23:07:20.523Z,16.40
2023-08-26T23:09:47.609Z,16.40
2023-08-26T23:12:14.681Z,16.40
2023-08-26T23:14:41.845Z,16.40
2023-08-26T23:17:09.003Z,16.40
2023-08-26T23:19:36.691Z,16.40
2023-08-26T23:22:03.883Z,16.40
2023-08-26T23:24:31.086Z,16.40
2023-08-26T23:26:58.276Z,16.40
2023-08-26T23:29:25.358Z,16.40
2023-08-26T23:31:52.668Z,16.40
2023-08-26T23:34:20.023Z,16.30
2023-08-26T23:36:47.912Z,16.30
2023-08-26T23:39:15.131Z,16.30
2023-08-26T23:41:42.890Z,16.30
2023-08-26T23:44:09.993Z,16.20
2023-08-26T23:46:37.306Z,16.20
2023-08-26T23:49:04.453Z,16.20
2023-08-26T23:51:31.800Z,16.20
2023-08-26T23:53:59.067Z,16.20
2023-08-26T23:56:26.166Z,16.30
2023-08-26T23:58:53.264Z,16.30
